Faisalabad Weather



Faisalabad's Current Weather

Temprature 25.536o clear sky

clear sky

Rain: 0 %

Min Temprature25.536o
Max Temprature25.536o
Humidity34
Wind Speed1.89 m/h
Sun Rise05:33:12
Sun Set18:39:20
Current Time: 21-Apr-2019 05:15:57
Lat/Lon: 31.42, 73.09




Faisalabad's Geo Location



Faisalabad's Weather Forecast

Time Overall Temp Min Temp Max Temp Humidity Wind Speed Rain
21-Apr-2019 (Sun)
08:00:00 clear sky 29.440 29.439 29.440 29 2.53 m/h 0 %
11:00:00 clear sky 35.350 35.350 35.350 19 1.34 m/h 0 %
14:00:00 clear sky 37.750 37.750 37.750 16 1.23 m/h 0 %
17:00:00 clear sky 36.950 36.950 36.950 16 1.71 m/h 0 %
20:00:00 clear sky 32.550 32.550 32.550 22 2.51 m/h 0 %
23:00:00 clear sky 29.890 29.890 29.890 29 2.79 m/h 0 %
22-Apr-2019 (Mon)
02:00:00 clear sky 28.370 28.370 28.370 33 2.66 m/h 0 %
05:00:00 clear sky 26.894 26.894 26.894 35 2.89 m/h 0 %
08:00:00 clear sky 30.936 30.936 30.936 28 2.16 m/h 0 %
11:00:00 clear sky 37.220 37.220 37.220 19 0.63 m/h 0 %
14:00:00 clear sky 39.315 39.315 39.315 15 1.78 m/h 0 %
17:00:00 clear sky 39.131 39.131 39.131 14 2.31 m/h 0 %
20:00:00 clear sky 34.150 34.150 34.150 19 2.6 m/h 0 %
23:00:00 clear sky 31.296 31.296 31.296 25 2.94 m/h 0 %
23-Apr-2019 (Tue)
02:00:00 clear sky 29.277 29.277 29.277 28 3.1 m/h 0 %
05:00:00 clear sky 27.766 27.766 27.766 30 2.39 m/h 0 %
08:00:00 broken clouds 31.757 31.757 31.757 24 2.11 m/h 0 %
11:00:00 broken clouds 38.650 38.650 38.650 15 1.06 m/h 0 %
14:00:00 clear sky 41.650 41.650 41.650 12 0.87 m/h 0 %
17:00:00 clear sky 40.850 40.850 40.850 11 1.17 m/h 0 %
20:00:00 clear sky 35.928 35.928 35.928 15 3.14 m/h 0 %
23:00:00 few clouds 32.850 32.850 32.850 20 3.94 m/h 0 %
24-Apr-2019 (Wed)
02:00:00 overcast clouds 31.382 31.382 31.382 22 3.02 m/h 0 %
05:00:00 overcast clouds 29.354 29.354 29.354 25 2.91 m/h 0 %
08:00:00 clear sky 33.250 33.250 33.250 19 4.85 m/h 0 %
11:00:00 clear sky 41.308 41.308 41.308 10 4.7 m/h 0 %
14:00:00 clear sky 43.550 43.550 43.550 7 6.73 m/h 0 %
17:00:00 few clouds 41.650 41.650 41.650 8 5.28 m/h 0 %
20:00:00 overcast clouds 33.455 33.455 33.455 25 7 m/h 0 %
23:00:00 broken clouds 30.845 30.845 30.845 29 8.17 m/h 0 %
25-Apr-2019 (Thu)
02:00:00 broken clouds 30.250 30.250 30.250 29 6.5 m/h 0 %
05:00:00 broken clouds 30.092 30.092 30.092 27 4.13 m/h 0 %
08:00:00 overcast clouds 30.820 30.820 30.820 28 2.21 m/h 0 %
11:00:00 broken clouds 37.490 37.490 37.490 18 2.16 m/h 0 %
14:00:00 clear sky 39.750 39.750 39.750 13 3.2 m/h 0 %
17:00:00 clear sky 39.611 39.611 39.611 12 2.91 m/h 0 %
20:00:00 few clouds 34.425 34.425 34.425 16 3.31 m/h 0 %
23:00:00 scattered clouds 32.143 32.143 32.143 20 3.94 m/h 0 %
26-Apr-2019 (Fri)
02:00:00 overcast clouds 30.232 30.232 30.232 22 3.7 m/h 0 %
05:00:00 broken clouds 28.156 28.156 28.156 19 4.01 m/h 0 %


Faisalabad's Tourist Spots

Parks and Zoos in Faisalabad

Famous Cities (60)